Time;durP1;ratioP1;P1;durP2;ratioP2;P2;SDS_P1;SDS_P2;PMS_P1;PMS_P2;Temp;Humidity;BMP_temperature;BMP_pressure;BME280_temperature;BME280_humidity;BME280_pressure;Samples;Min_cycle;Max_cycle;Signal;HPM_P1;HPM_P2
2023/06/27 00:00:13;;;;;;;3.80;1.77;;;19.50;76.20;;;;;;5078358;28;20443;-86
2023/06/27 00:02:40;;;;;;;2.70;1.93;;;19.40;76.60;;;;;;5072509;28;20171;-85
2023/06/27 00:05:06;;;;;;;4.63;1.83;;;19.30;76.80;;;;;;5066676;28;20454;-85
2023/06/27 00:07:31;;;;;;;3.90;1.70;;;19.20;77.10;;;;;;5072431;28;20441;-86
2023/06/27 00:09:57;;;;;;;3.63;1.93;;;;;;;;;;5072826;28;20207;-83
2023/06/27 00:12:23;;;;;;;3.47;2.10;;;19.10;77.00;;;;;;5072992;28;20194;-84
2023/06/27 00:14:49;;;;;;;5.63;1.57;;;19.00;78.70;;;;;;5075015;28;20458;-83
2023/06/27 00:17:16;;;;;;;7.87;2.43;;;18.90;79.60;;;;;;5068312;28;20196;-83
2023/06/27 00:19:44;;;;;;;3.00;1.90;;;18.90;79.70;;;;;;5072334;28;20228;-85
2023/06/27 00:22:10;;;;;;;2.20;1.80;;;18.80;80.10;;;;;;5077736;28;20879;-84
2023/06/27 00:24:36;;;;;;;2.50;1.47;;;18.70;80.60;;;;;;5075669;28;20449;-83
2023/06/27 00:27:02;;;;;;;7.33;1.73;;;18.70;80.70;;;;;;5084569;28;20445;-81
2023/06/27 00:29:28;;;;;;;4.47;2.10;;;18.60;81.30;;;;;;5075997;28;20446;-84
2023/06/27 00:31:55;;;;;;;2.07;1.70;;;18.60;81.50;;;;;;5074805;28;20422;-85
2023/06/27 00:34:20;;;;;;;1.37;1.20;;;18.60;81.90;;;;;;5090405;28;20833;-85
2023/06/27 00:36:46;;;;;;;6.97;1.30;;;18.60;82.00;;;;;;5076848;28;20494;-84
2023/06/27 00:39:11;;;;;;;4.50;1.67;;;18.60;83.40;;;;;;5080654;28;20175;-85
2023/06/27 00:41:37;;;;;;;3.30;1.27;;;18.60;83.90;;;;;;5071735;28;23730;-84
2023/06/27 00:44:08;;;;;;;4.03;1.37;;;18.60;84.50;;;;;;5068538;28;20282;-83
2023/06/27 00:46:38;;;;;;;3.90;1.50;;;18.60;85.00;;;;;;5074640;28;20187;-83
2023/06/27 00:49:07;;;;;;;1.60;1.43;;;18.60;86.10;;;;;;5072529;28;20487;-86
2023/06/27 00:51:33;;;;;;;2.50;1.43;;;18.70;85.00;;;;;;5076515;28;20824;-85
2023/06/27 00:53:59;;;;;;;4.80;2.37;;;;;;;;;;5073709;28;20501;-84
2023/06/27 00:56:26;;;;;;;2.70;1.80;;;18.60;82.90;;;;;;5071664;28;20433;-85
2023/06/27 00:58:53;;;;;;;2.30;1.83;;;18.60;83.40;;;;;;5070315;28;20439;-84
2023/06/27 01:01:19;;;;;;;2.90;1.57;;;18.60;82.80;;;;;;5066301;28;20510;-84
2023/06/27 01:03:45;;;;;;;3.50;1.77;;;18.80;83.70;;;;;;5066796;28;20429;-85
2023/06/27 01:06:18;;;;;;;2.97;1.83;;;18.60;83.60;;;;;;5063919;28;20461;-84
2023/06/27 01:09:06;;;;;;;7.90;1.70;;;18.60;83.00;;;;;;5070000;28;20670;-83
2023/06/27 01:11:56;;;;;;;2.50;1.70;;;18.40;82.40;;;;;;5069709;28;20461;-83
2023/06/27 01:14:25;;;;;;;4.20;1.67;;;18.40;83.20;;;;;;5066286;28;20544;-82
2023/06/27 01:16:51;;;;;;;10.00;2.00;;;18.40;83.40;;;;;;5060854;28;20457;-82
2023/06/27 01:19:21;;;;;;;5.50;2.00;;;18.30;84.70;;;;;;5069833;28;20433;-83
2023/06/27 01:21:52;;;;;;;3.73;2.00;;;18.40;85.70;;;;;;5077294;28;20520;-83
2023/06/27 01:24:18;;;;;;;5.70;1.80;;;18.20;83.70;;;;;;5092247;28;20433;-84
2023/06/27 01:26:43;;;;;;;3.20;2.47;;;18.20;84.40;;;;;;5092886;28;21030;-83
2023/06/27 01:29:11;;;;;;;3.70;1.40;;;18.20;84.90;;;;;;5069162;28;20295;-83
2023/06/27 01:31:46;;;;;;;3.10;2.00;;;18.10;84.60;;;;;;5068424;28;20211;-84
2023/06/27 01:34:18;;;;;;;4.07;1.80;;;18.00;84.80;;;;;;5069457;28;20438;-82
2023/06/27 01:36:49;;;;;;;3.80;2.27;;;18.00;85.50;;;;;;5066814;28;20464;-84
2023/06/27 01:39:19;;;;;;;2.50;1.80;;;18.00;86.50;;;;;;5068794;28;20430;-84
2023/06/27 01:41:50;;;;;;;4.60;1.83;;;18.00;89.10;;;;;;5074713;28;20480;-81
2023/06/27 01:44:18;;;;;;;3.63;2.13;;;17.90;87.20;;;;;;5069380;28;20508;-82
2023/06/27 01:46:46;;;;;;;3.27;1.93;;;17.90;87.90;;;;;;5071439;28;20544;-81
2023/06/27 01:49:12;;;;;;;4.80;2.30;;;17.80;88.70;;;;;;5069035;28;20441;-85
2023/06/27 01:51:40;;;;;;;5.30;2.43;;;17.80;88.40;;;;;;5094345;28;20469;-85
2023/06/27 01:54:05;;;;;;;4.97;1.93;;;17.80;90.00;;;;;;5075339;28;20513;-84
2023/06/27 01:56:31;;;;;;;3.30;1.87;;;17.80;90.30;;;;;;5074840;28;20445;-82
2023/06/27 01:58:56;;;;;;;4.23;2.20;;;17.80;89.60;;;;;;5078381;28;20302;-83
2023/06/27 02:01:22;;;;;;;4.10;1.83;;;17.80;90.50;;;;;;5074626;28;20516;-85
2023/06/27 02:03:47;;;;;;;3.53;1.97;;;17.80;90.20;;;;;;5077904;28;20230;-85
2023/06/27 02:06:15;;;;;;;2.57;1.53;;;17.80;90.40;;;;;;5073779;28;20231;-85
2023/06/27 02:08:40;;;;;;;1.60;1.43;;;17.90;90.40;;;;;;5069326;28;20190;-86
2023/06/27 02:11:06;;;;;;;4.00;2.03;;;18.00;90.50;;;;;;5074512;28;20461;-85
2023/06/27 02:13:37;;;;;;;2.47;1.33;;;17.90;90.20;;;;;;5077593;28;20282;-85
2023/06/27 02:16:03;;;;;;;6.23;2.30;;;17.90;90.40;;;;;;5074939;28;20467;-83
2023/06/27 02:18:29;;;;;;;2.70;1.43;;;17.80;90.50;;;;;;5077400;28;20655;-86
2023/06/27 02:20:54;;;;;;;6.70;1.50;;;17.80;90.60;;;;;;5077453;28;20790;-85
2023/06/27 02:23:20;;;;;;;4.33;1.80;;;17.80;90.60;;;;;;5077886;28;20208;-86
2023/06/27 02:25:45;;;;;;;3.17;2.07;;;17.80;90.40;;;;;;5076869;28;20207;-83
2023/06/27 02:28:11;;;;;;;2.47;1.60;;;;;;;;;;5074973;28;20180;-84
2023/06/27 02:30:37;;;;;;;3.10;1.57;;;;;;;;;;5070444;28;20289;-83
2023/06/27 02:33:03;;;;;;;4.23;1.80;;;17.70;90.80;;;;;;5078345;28;20442;-84
2023/06/27 02:35:28;;;;;;;3.30;2.00;;;17.60;91.30;;;;;;5082640;28;20492;-85
2023/06/27 02:37:54;;;;;;;3.30;1.60;;;17.60;91.60;;;;;;5089187;28;20176;-86
2023/06/27 02:40:19;;;;;;;2.30;1.83;;;17.50;92.00;;;;;;5081624;28;20210;-85
2023/06/27 02:42:45;;;;;;;2.17;1.73;;;17.40;92.20;;;;;;5073388;28;20556;-84
2023/06/27 02:45:10;;;;;;;2.33;1.63;;;17.30;92.80;;;;;;5091282;28;20797;-85
2023/06/27 02:47:36;;;;;;;8.43;2.63;;;17.30;93.30;;;;;;5076708;28;20184;-86
2023/06/27 02:50:02;;;;;;;1.73;1.50;;;17.20;94.00;;;;;;5074657;28;20682;-83
2023/06/27 02:52:28;;;;;;;4.10;1.40;;;17.10;94.70;;;;;;5076450;28;20208;-86
2023/06/27 02:54:53;;;;;;;2.50;1.40;;;17.00;96.50;;;;;;5073299;28;20500;-84
2023/06/27 02:57:20;;;;;;;5.97;1.67;;;16.90;97.60;;;;;;5075768;28;20699;-84
2023/06/27 02:59:45;;;;;;;1.97;1.60;;;16.80;98.00;;;;;;5090019;28;20183;-84
2023/06/27 03:02:11;;;;;;;2.27;1.70;;;16.70;99.00;;;;;;5077367;28;20494;-86
2023/06/27 03:04:37;;;;;;;3.30;1.57;;;16.70;99.60;;;;;;5068346;28;20230;-83
2023/06/27 03:07:03;;;;;;;2.13;1.43;;;16.70;99.60;;;;;;5065848;28;20441;-82
2023/06/27 03:09:28;;;;;;;3.50;1.10;;;16.60;99.90;;;;;;5072548;28;20199;-86
2023/06/27 03:11:54;;;;;;;1.80;1.60;;;16.60;99.90;;;;;;5094290;28;20186;-83
2023/06/27 03:14:19;;;;;;;1.90;1.30;;;16.40;99.90;;;;;;5069398;28;20191;-85
2023/06/27 03:16:45;;;;;;;2.27;1.37;;;16.40;99.90;;;;;;5063281;28;20175;-83
2023/06/27 03:19:11;;;;;;;2.00;1.73;;;16.20;99.90;;;;;;5087959;28;21146;-84
2023/06/27 03:21:36;;;;;;;2.30;1.60;;;16.20;99.90;;;;;;5071958;28;20962;-85
2023/06/27 03:24:02;;;;;;;2.80;1.50;;;16.10;99.90;;;;;;5075916;28;20198;-84
2023/06/27 03:26:28;;;;;;;4.03;2.00;;;16.10;99.90;;;;;;5076832;28;20192;-82
2023/06/27 03:28:56;;;;;;;2.57;1.43;;;16.10;99.90;;;;;;5065772;28;20207;-84
2023/06/27 03:31:22;;;;;;;2.30;1.23;;;16.10;99.90;;;;;;5071279;28;20203;-83
2023/06/27 03:33:48;;;;;;;2.27;1.50;;;16.10;99.90;;;;;;5076609;28;20435;-84
2023/06/27 03:36:13;;;;;;;2.10;1.47;;;16.10;99.90;;;;;;5074316;28;20454;-84
2023/06/27 03:38:39;;;;;;;2.20;1.50;;;16.20;99.90;;;;;;5073887;28;20599;-84
2023/06/27 03:41:05;;;;;;;3.37;1.37;;;16.20;99.90;;;;;;5069459;28;20176;-82
2023/06/27 03:43:30;;;;;;;2.27;1.83;;;16.30;99.90;;;;;;5083225;28;22167;-83
2023/06/27 03:45:56;;;;;;;9.87;1.80;;;16.40;99.90;;;;;;5081461;28;20215;-83
2023/06/27 03:48:21;;;;;;;5.73;2.27;;;16.40;99.90;;;;;;5075177;28;20186;-84
2023/06/27 03:50:47;;;;;;;2.40;1.70;;;16.40;99.90;;;;;;5072254;28;20204;-81
2023/06/27 03:53:12;;;;;;;11.63;1.70;;;16.40;99.90;;;;;;5075283;28;20205;-84
2023/06/27 03:55:40;;;;;;;4.33;1.97;;;16.40;99.90;;;;;;5069259;28;20203;-86
2023/06/27 03:58:06;;;;;;;2.30;1.30;;;16.60;99.90;;;;;;5067096;28;20184;-84
2023/06/27 04:00:32;;;;;;;2.70;1.30;;;16.60;99.90;;;;;;5057861;28;20439;-82
2023/06/27 04:02:58;;;;;;;4.23;1.67;;;16.70;99.90;;;;;;5069461;28;20433;-83
2023/06/27 04:05:23;;;;;;;3.20;1.67;;;16.80;99.90;;;;;;5065433;28;20287;-83
2023/06/27 04:07:49;;;;;;;1.93;1.40;;;16.80;99.90;;;;;;5066363;28;20878;-84
2023/06/27 04:10:14;;;;;;;2.97;1.20;;;16.90;99.90;;;;;;5068846;28;20234;-81
2023/06/27 04:12:41;;;;;;;1.97;1.50;;;17.00;99.90;;;;;;5071636;28;20198;-82
2023/06/27 04:15:07;;;;;;;3.23;1.60;;;17.10;99.90;;;;;;5089492;28;20208;-85
2023/06/27 04:17:32;;;;;;;5.00;1.83;;;17.20;99.90;;;;;;5065285;28;20514;-84
2023/06/27 04:19:57;;;;;;;2.77;1.63;;;17.20;99.90;;;;;;5070522;28;20561;-82
2023/06/27 04:22:23;;;;;;;3.87;1.80;;;17.20;99.90;;;;;;5066437;28;20588;-83
2023/06/27 04:24:48;;;;;;;6.23;2.23;;;17.40;99.90;;;;;;5073382;28;20250;-85
2023/06/27 04:27:14;;;;;;;4.80;1.40;;;17.30;99.90;;;;;;5073426;28;20222;-83
2023/06/27 04:29:39;;;;;;;2.97;1.43;;;17.40;99.90;;;;;;5074181;28;20191;-82
2023/06/27 04:32:07;;;;;;;2.77;1.60;;;17.50;99.90;;;;;;5074568;28;20183;-83
2023/06/27 04:34:36;;;;;;;3.87;1.60;;;17.50;99.90;;;;;;5070441;28;20219;-82
2023/06/27 04:37:03;;;;;;;2.77;1.10;;;17.70;99.90;;;;;;5091617;28;20442;-83
2023/06/27 04:39:28;;;;;;;2.50;1.80;;;17.80;99.90;;;;;;5070700;28;20476;-83
2023/06/27 04:41:54;;;;;;;3.73;1.83;;;17.90;99.90;;;;;;5080954;28;20437;-85
2023/06/27 04:44:21;;;;;;;4.30;1.87;;;17.80;99.90;;;;;;5074270;28;20908;-87
2023/06/27 04:46:46;;;;;;;2.27;1.70;;;17.90;99.90;;;;;;5072676;28;20191;-86
2023/06/27 04:49:12;;;;;;;2.20;1.83;;;;;;;;;;5074409;28;20438;-83
2023/06/27 04:51:38;;;;;;;6.63;2.40;;;17.70;99.90;;;;;;5088969;28;20253;-86
2023/06/27 04:54:03;;;;;;;2.30;1.83;;;17.70;99.90;;;;;;5068474;28;20449;-84
2023/06/27 04:56:29;;;;;;;6.60;2.20;;;17.80;99.90;;;;;;5061853;28;20722;-84
2023/06/27 04:58:55;;;;;;;1.90;1.60;;;;;;;;;;5056270;28;20644;-84
2023/06/27 05:01:21;;;;;;;3.40;1.73;;;17.90;99.90;;;;;;5056340;28;20187;-84
2023/06/27 05:03:46;;;;;;;6.50;1.30;;;18.00;99.90;;;;;;5069271;28;20950;-83
2023/06/27 05:06:12;;;;;;;4.03;1.60;;;18.10;99.90;;;;;;5065548;28;20211;-86
2023/06/27 05:08:37;;;;;;;2.07;1.40;;;18.20;99.90;;;;;;5068272;28;20280;-83
2023/06/27 05:11:04;;;;;;;4.17;2.10;;;18.20;99.90;;;;;;5067750;28;20211;-82
2023/06/27 05:13:30;;;;;;;2.73;1.50;;;18.40;99.90;;;;;;5070766;28;20632;-83
2023/06/27 05:15:55;;;;;;;4.17;1.90;;;18.60;99.90;;;;;;5066381;28;20456;-85
2023/06/27 05:18:22;;;;;;;5.70;1.60;;;18.90;99.90;;;;;;5065996;28;20180;-83
2023/06/27 05:20:47;;;;;;;1.80;1.40;;;19.20;99.90;;;;;;5067288;28;20233;-83
2023/06/27 05:23:13;;;;;;;5.23;2.10;;;19.40;99.90;;;;;;5084723;28;20620;-85
2023/06/27 05:25:38;;;;;;;1.70;1.03;;;19.60;99.90;;;;;;5080524;28;20558;-87
2023/06/27 05:28:04;;;;;;;2.60;1.47;;;19.70;99.90;;;;;;5059693;28;20311;-86
2023/06/27 05:30:31;;;;;;;2.33;1.40;;;19.70;98.80;;;;;;5062632;28;20201;-85
2023/06/27 05:32:57;;;;;;;3.13;1.80;;;19.80;98.90;;;;;;5071040;28;20240;-86
2023/06/27 05:35:23;;;;;;;2.83;1.63;;;20.00;99.50;;;;;;5069681;28;20462;-86
2023/06/27 05:37:49;;;;;;;2.37;1.70;;;19.80;98.90;;;;;;5073372;28;20453;-85
2023/06/27 05:40:15;;;;;;;2.50;1.70;;;19.70;98.40;;;;;;5069759;28;20474;-86
2023/06/27 05:42:41;;;;;;;6.57;1.70;;;19.60;99.40;;;;;;5073759;28;20449;-86
2023/06/27 05:45:07;;;;;;;1.80;1.70;;;19.50;99.00;;;;;;5072320;28;21072;-86
2023/06/27 05:47:33;;;;;;;5.10;1.93;;;19.80;98.60;;;;;;5082884;28;20180;-85
2023/06/27 05:49:59;;;;;;;4.20;1.90;;;19.90;97.80;;;;;;5069727;28;20464;-86
2023/06/27 05:52:24;;;;;;;2.43;1.70;;;20.00;97.10;;;;;;5072666;28;20218;-86
2023/06/27 05:54:53;;;;;;;3.70;1.43;;;19.90;97.30;;;;;;5070452;28;20466;-86
2023/06/27 05:57:19;;;;;;;1.80;1.40;;;;;;;;;;5099003;28;20600;-85
2023/06/27 05:59:45;;;;;;;2.13;1.40;;;;;;;;;;5089888;28;20410;-85
2023/06/27 06:02:10;;;;;;;2.10;1.10;;;20.00;96.20;;;;;;5093896;28;20504;-87
2023/06/27 06:04:36;;;;;;;5.20;1.53;;;20.20;96.70;;;;;;5082182;28;21002;-85
2023/06/27 06:07:03;;;;;;;3.47;1.87;;;20.50;95.60;;;;;;5080760;28;20599;-87
2023/06/27 06:09:30;;;;;;;2.17;1.97;;;20.70;95.30;;;;;;5075782;28;20161;-86
2023/06/27 06:11:56;;;;;;;1.60;1.30;;;20.90;94.30;;;;;;5081919;28;20457;-86
2023/06/27 06:14:21;;;;;;;3.23;1.43;;;21.70;93.00;;;;;;5084868;28;20433;-86
2023/06/27 06:16:47;;;;;;;5.00;1.77;;;21.70;92.90;;;;;;5081186;28;20180;-86
2023/06/27 06:19:13;;;;;;;1.70;1.50;;;22.00;92.30;;;;;;5082858;28;20191;-86
2023/06/27 06:21:38;;;;;;;1.87;1.40;;;22.30;91.40;;;;;;5079328;28;20196;-87
2023/06/27 06:24:04;;;;;;;2.93;1.30;;;22.80;90.20;;;;;;5080092;28;20505;-86
2023/06/27 06:26:30;;;;;;;3.07;1.60;;;;;;;;;;5080088;28;20330;-86
2023/06/27 06:28:56;;;;;;;4.10;1.70;;;23.80;86.20;;;;;;5080141;28;20187;-86
2023/06/27 06:31:24;;;;;;;2.90;1.60;;;;;;;;;;5081557;28;20460;-88
2023/06/27 06:33:49;;;;;;;3.43;1.63;;;25.40;75.60;;;;;;5082409;28;20177;-85
2023/06/27 06:36:15;;;;;;;3.43;2.20;;;25.30;75.60;;;;;;5082150;28;20453;-87
2023/06/27 06:38:41;;;;;;;2.87;1.53;;;25.50;73.10;;;;;;5084546;28;20231;-86
2023/06/27 06:41:07;;;;;;;4.20;1.80;;;;;;;;;;5078095;28;20712;-86
2023/06/27 06:43:32;;;;;;;2.63;2.00;;;26.90;66.20;;;;;;5075742;28;20210;-86
2023/06/27 06:45:58;;;;;;;6.43;1.50;;;26.50;64.30;;;;;;5075309;28;20460;-87
2023/06/27 06:48:24;;;;;;;4.23;1.47;;;26.60;63.90;;;;;;5082112;28;20192;-86
2023/06/27 06:50:51;;;;;;;3.20;1.57;;;26.30;62.00;;;;;;5081316;28;20255;-86
2023/06/27 06:53:17;;;;;;;3.13;1.50;;;25.60;62.50;;;;;;5078962;28;20516;-85
2023/06/27 06:55:43;;;;;;;3.50;1.50;;;25.00;63.40;;;;;;5079060;28;21043;-86
2023/06/27 06:58:09;;;;;;;1.97;1.77;;;;;;;;;;5078477;28;20430;-86
2023/06/27 07:00:36;;;;;;;3.57;1.33;;;;;;;;;;5077862;28;20659;-86
2023/06/27 07:03:03;;;;;;;2.27;1.70;;;;;;;;;;5078928;28;20517;-87
2023/06/27 07:05:29;;;;;;;3.60;1.53;;;;;;;;;;5075941;28;20458;-86
2023/06/27 07:07:55;;;;;;;5.03;1.67;;;24.90;65.50;;;;;;5078817;28;21024;-87
2023/06/27 07:10:20;;;;;;;1.67;1.50;;;24.70;65.50;;;;;;5088531;28;20460;-85
2023/06/27 07:12:46;;;;;;;4.40;1.83;;;24.60;65.90;;;;;;5084591;28;21020;-86
2023/06/27 07:15:14;;;;;;;3.10;1.93;;;;;;;;;;5081000;28;20258;-86
2023/06/27 07:17:40;;;;;;;1.90;1.43;;;;;;;;;;5082072;28;20173;-88
2023/06/27 07:20:08;;;;;;;4.33;1.80;;;24.70;64.40;;;;;;5076806;28;20492;-87
2023/06/27 07:22:34;;;;;;;9.63;1.57;;;24.50;66.50;;;;;;5073849;28;20460;-87
2023/06/27 07:24:59;;;;;;;1.93;1.50;;;24.40;66.60;;;;;;5073580;28;20956;-88
2023/06/27 07:27:25;;;;;;;2.30;1.30;;;24.00;67.80;;;;;;5079613;28;20219;-87
2023/06/27 07:29:50;;;;;;;3.13;1.70;;;;;;;;;;5080756;28;20187;-87
2023/06/27 07:32:16;;;;;;;5.10;1.90;;;24.20;66.20;;;;;;5081337;28;20175;-85
2023/06/27 07:34:41;;;;;;;5.50;1.80;;;24.20;66.40;;;;;;5081231;28;20445;-87
2023/06/27 07:37:07;;;;;;;4.60;1.80;;;24.00;68.60;;;;;;5078109;28;20885;-85
2023/06/27 07:39:33;;;;;;;4.67;1.60;;;25.60;69.10;;;;;;5080453;28;20179;-85
2023/06/27 07:41:58;;;;;;;4.10;1.83;;;24.40;67.00;;;;;;5080522;28;20188;-86
2023/06/27 07:44:25;;;;;;;2.27;1.70;;;24.70;67.10;;;;;;5075631;28;20293;-84
2023/06/27 07:46:51;;;;;;;3.90;1.90;;;;;;;;;;5074381;28;20189;-87
2023/06/27 07:49:17;;;;;;;3.80;1.97;;;26.70;59.60;;;;;;5079818;28;20434;-85
2023/06/27 07:51:42;;;;;;;2.87;1.53;;;26.60;59.30;;;;;;5081237;28;20459;-87
2023/06/27 07:54:09;;;;;;;5.90;1.67;;;26.70;58.80;;;;;;5078609;28;21941;-87
2023/06/27 07:56:35;;;;;;;2.93;1.63;;;;;;;;;;5082241;28;20177;-87
2023/06/27 07:59:03;;;;;;;2.40;1.23;;;;;;;;;;5081130;28;20440;-86
2023/06/27 08:01:30;;;;;;;2.70;1.80;;;;;;;;;;5075948;28;20451;-86
2023/06/27 08:03:55;;;;;;;1.53;1.30;;;26.30;56.60;;;;;;5077118;28;20579;-87
2023/06/27 08:06:21;;;;;;;3.33;1.87;;;26.00;57.20;;;;;;5073254;28;22407;-87
2023/06/27 08:08:46;;;;;;;8.13;2.43;;;25.40;57.60;;;;;;5075387;28;20188;-85
2023/06/27 08:11:12;;;;;;;3.70;1.63;;;25.50;57.90;;;;;;5079552;28;20234;-86
2023/06/27 08:13:41;;;;;;;4.23;1.70;;;25.30;58.40;;;;;;5091940;28;20188;-86
2023/06/27 08:16:07;;;;;;;5.33;1.77;;;;;;;;;;5078314;28;21105;-86
2023/06/27 08:18:33;;;;;;;1.50;1.40;;;;;;;;;;5076204;28;20453;-87
2023/06/27 08:20:58;;;;;;;7.50;1.70;;;26.20;54.80;;;;;;5074309;28;20441;-86
2023/06/27 08:23:24;;;;;;;4.80;2.00;;;26.50;54.30;;;;;;5078193;28;20448;-86
2023/06/27 08:25:50;;;;;;;4.40;2.10;;;;;;;;;;5076364;28;20733;-87
2023/06/27 08:28:16;;;;;;;2.07;1.37;;;;;;;;;;5077878;28;20181;-86
2023/06/27 08:30:42;;;;;;;1.50;1.37;;;;;;;;;;5083245;28;20547;-86
2023/06/27 08:33:08;;;;;;;3.03;1.80;;;;;;;;;;5081640;28;20447;-87
2023/06/27 08:35:34;;;;;;;5.13;1.70;;;26.80;53.70;;;;;;5080154;28;20458;-87
2023/06/27 08:38:00;;;;;;;2.20;1.27;;;;;;;;;;5080215;28;20984;-87
2023/06/27 08:40:27;;;;;;;1.80;1.70;;;27.00;52.60;;;;;;5078339;28;20437;-87
2023/06/27 08:42:53;;;;;;;3.07;1.60;;;;;;;;;;5076230;28;20546;-86
2023/06/27 08:45:19;;;;;;;1.90;1.60;;;;;;;;;;5076871;28;20640;-86
2023/06/27 08:47:46;;;;;;;2.17;1.50;;;29.70;50.30;;;;;;5076544;28;20441;-85
2023/06/27 08:50:17;;;;;;;2.03;1.90;;;32.20;46.30;;;;;;5095148;28;21007;-85
2023/06/27 08:52:45;;;;;;;2.57;2.37;;;31.50;44.10;;;;;;5080906;28;20544;-85
2023/06/27 08:55:20;;;;;;;4.50;2.43;;;32.50;45.00;;;;;;5098574;28;20461;-87
2023/06/27 08:57:46;;;;;;;3.37;2.80;;;34.30;41.20;;;;;;5080673;28;20439;-86
2023/06/27 09:00:14;;;;;;;3.67;3.47;;;35.20;37.90;;;;;;5079387;28;20440;-86
2023/06/27 09:02:42;;;;;;;4.47;4.27;;;36.40;36.00;;;;;;5081229;28;20448;-85
2023/06/27 09:05:08;;;;;;;5.80;5.30;;;37.40;33.80;;;;;;5080940;28;20472;-87
2023/06/27 09:07:34;;;;;;;5.30;5.10;;;;;;;;;;5082798;28;20442;-85
2023/06/27 09:10:00;;;;;;;5.37;5.17;;;;;;;;;;5084023;28;20436;-87
2023/06/27 09:12:27;;;;;;;8.90;5.87;;;39.10;30.40;;;;;;5088763;28;20425;-86
2023/06/27 09:14:53;;;;;;;6.30;5.90;;;;;;;;;;5084402;28;20458;-86
2023/06/27 09:17:19;;;;;;;6.40;5.97;;;;;;;;;;5082330;28;20425;-87
2023/06/27 09:19:45;;;;;;;7.50;7.00;;;;;;;;;;5084202;28;20550;-85
2023/06/27 09:22:11;;;;;;;6.70;6.30;;;;;;;;;;5076698;28;20471;-86
2023/06/27 09:24:40;;;;;;;4.77;4.47;;;32.60;29.70;;;;;;5079295;28;20477;-86
2023/06/27 09:27:26;;;;;;;5.10;3.83;;;29.50;36.00;;;;;;5080810;28;20808;-86
2023/06/27 09:29:52;;;;;;;2.97;2.77;;;27.90;40.70;;;;;;5083236;28;20520;-85
2023/06/27 09:32:17;;;;;;;3.90;3.00;;;28.20;40.90;;;;;;5084461;28;20780;-84
2023/06/27 09:34:43;;;;;;;3.33;3.03;;;;;;;;;;5083999;28;20210;-85
2023/06/27 09:37:09;;;;;;;3.50;3.20;;;;;;;;;;5082943;28;20181;-85
2023/06/27 09:39:35;;;;;;;3.30;3.10;;;31.80;36.80;;;;;;5088533;28;20443;-85
2023/06/27 09:42:01;;;;;;;4.30;3.90;;;33.20;34.20;;;;;;5082957;28;20977;-87
2023/06/27 09:44:27;;;;;;;3.57;3.37;;;33.10;34.70;;;;;;5081567;28;20242;-86
2023/06/27 09:46:53;;;;;;;3.77;3.50;;;33.40;34.80;;;;;;5083659;28;20427;-87
2023/06/27 09:49:21;;;;;;;3.80;3.50;;;30.80;35.20;;;;;;5088649;28;20599;-85
2023/06/27 09:51:49;;;;;;;3.23;3.03;;;;;;;;;;5088811;28;20662;-87
2023/06/27 09:54:19;;;;;;;3.60;3.30;;;29.40;38.20;;;;;;5087047;28;20430;-86
2023/06/27 09:56:50;;;;;;;2.73;2.63;;;29.50;38.80;;;;;;5080762;28;20423;-85
2023/06/27 09:59:17;;;;;;;4.90;3.17;;;29.30;39.70;;;;;;5083116;28;20420;-85
2023/06/27 10:01:43;;;;;;;3.27;3.00;;;27.90;40.20;;;;;;5085210;28;20490;-85
2023/06/27 10:04:09;;;;;;;2.60;2.40;;;26.70;43.60;;;;;;5079409;28;20436;-84
2023/06/27 10:06:35;;;;;;;2.70;2.50;;;;;;;;;;5099632;28;20465;-85
2023/06/27 10:09:01;;;;;;;2.83;2.63;;;27.00;43.80;;;;;;5091795;28;20534;-87
2023/06/27 10:11:27;;;;;;;5.70;2.50;;;27.50;44.50;;;;;;5090824;28;20464;-86
2023/06/27 10:13:53;;;;;;;4.70;2.10;;;26.60;45.60;;;;;;5084271;28;20431;-87
2023/06/27 10:16:20;;;;;;;5.23;2.40;;;25.90;46.80;;;;;;5084475;28;20457;-87
2023/06/27 10:18:47;;;;;;;3.70;2.50;;;26.20;47.00;;;;;;5079242;28;20486;-85
2023/06/27 10:21:14;;;;;;;7.67;2.27;;;26.70;46.30;;;;;;5081778;28;20432;-86
2023/06/27 10:23:44;;;;;;;2.10;1.90;;;26.60;45.80;;;;;;5081389;28;20656;-87
2023/06/27 10:26:10;;;;;;;7.30;2.30;;;26.60;46.20;;;;;;5078730;28;20498;-86
2023/06/27 10:28:36;;;;;;;3.00;2.07;;;;;;;;;;5085630;28;20617;-85
2023/06/27 10:31:04;;;;;;;2.63;2.23;;;;;;;;;;5084107;28;20219;-87
2023/06/27 10:33:35;;;;;;;2.67;2.47;;;28.00;43.40;;;;;;5081688;28;20465;-86
2023/06/27 10:36:05;;;;;;;4.50;2.37;;;27.70;45.60;;;;;;5082076;28;20470;-87
2023/06/27 10:38:34;;;;;;;3.13;2.43;;;26.30;44.20;;;;;;5086932;28;20457;-85
2023/06/27 10:41:06;;;;;;;2.60;2.40;;;25.20;46.30;;;;;;5082593;28;20448;-87
2023/06/27 10:43:36;;;;;;;2.67;2.30;;;25.10;48.60;;;;;;5074821;28;20472;-83
2023/06/27 10:46:10;;;;;;;2.70;2.17;;;25.80;48.90;;;;;;5071842;28;21263;-86
2023/06/27 10:48:48;;;;;;;4.90;3.00;;;26.20;48.90;;;;;;5076109;28;20460;-84
2023/06/27 10:51:19;;;;;;;1.70;1.60;;;26.20;48.60;;;;;;5087536;28;20471;-84
2023/06/27 10:54:06;;;;;;;3.67;2.10;;;25.20;48.30;;;;;;5081381;28;20433;-90
2023/06/27 10:56:45;;;;;;;3.90;2.13;;;25.30;49.70;;;;;;5078884;28;21017;-91
2023/06/27 10:59:15;;;;;;;2.80;2.03;;;25.50;49.40;;;;;;5079420;28;20458;-88
2023/06/27 11:01:43;;;;;;;3.63;2.53;;;25.30;48.80;;;;;;5078493;28;20437;-90
2023/06/27 11:04:20;;;;;;;2.93;2.50;;;25.90;48.70;;;;;;5081406;28;21025;-89
2023/06/27 11:06:46;;;;;;;3.80;1.73;;;;;;;;;;5078006;28;20465;-90
2023/06/27 11:09:16;;;;;;;3.10;2.17;;;26.40;47.80;;;;;;5087398;28;20422;-90
2023/06/27 11:12:07;;;;;;;3.70;2.33;;;25.40;47.60;;;;;;5083510;28;20552;-89
2023/06/27 11:14:37;;;;;;;2.53;2.33;;;24.70;49.70;;;;;;5095957;28;20456;-89
2023/06/27 11:17:04;;;;;;;2.80;2.50;;;;;;;;;;5077498;28;20461;-89
2023/06/27 11:19:33;;;;;;;2.07;1.87;;;25.00;50.20;;;;;;5080214;28;20422;-89
2023/06/27 11:22:00;;;;;;;5.00;2.57;;;26.90;51.20;;;;;;5079098;28;20512;-90
2023/06/27 11:24:27;;;;;;;4.43;2.87;;;26.20;48.60;;;;;;5085326;28;20442;-89
2023/06/27 11:26:53;;;;;;;6.00;2.40;;;;;;;;;;5080587;28;20480;-88
2023/06/27 11:29:20;;;;;;;4.53;2.10;;;;;;;;;;5098048;28;20455;-89
2023/06/27 11:31:46;;;;;;;3.10;2.30;;;25.70;48.70;;;;;;5076269;28;20449;-91
2023/06/27 11:34:12;;;;;;;2.90;2.53;;;;;;;;;;5086244;28;20454;-89
2023/06/27 11:36:38;;;;;;;11.03;2.30;;;26.30;47.40;;;;;;5100703;28;20175;-91
2023/06/27 11:39:05;;;;;;;2.50;2.30;;;27.50;48.90;;;;;;5084347;28;20437;-90
2023/06/27 11:41:30;;;;;;;3.47;2.47;;;25.30;48.50;;;;;;5093935;28;20453;-90
2023/06/27 11:43:56;;;;;;;2.90;2.60;;;25.10;49.90;;;;;;5081743;28;20466;-91
2023/06/27 11:46:22;;;;;;;4.13;2.30;;;25.20;49.30;;;;;;5086856;28;20831;-91
2023/06/27 11:48:48;;;;;;;3.97;2.63;;;;;;;;;;5096136;28;20706;-91
2023/06/27 11:51:14;;;;;;;3.80;2.43;;;;;;;;;;5079134;28;20227;-90
2023/06/27 11:53:50;;;;;;;2.20;2.00;;;25.40;48.50;;;;;;5079644;28;20479;-91
2023/06/27 11:56:16;;;;;;;3.40;2.17;;;25.80;48.90;;;;;;5081640;28;20457;-88
2023/06/27 11:58:45;;;;;;;4.27;3.00;;;25.20;48.90;;;;;;5078058;28;20477;-88
2023/06/27 12:01:13;;;;;;;3.70;2.23;;;25.20;49.00;;;;;;5088456;28;20461;-89
2023/06/27 12:03:38;;;;;;;3.03;2.40;;;26.10;50.10;;;;;;5080168;28;20435;-91
2023/06/27 12:06:04;;;;;;;9.87;2.87;;;25.80;50.20;;;;;;5078382;28;20997;-89
2023/06/27 12:08:31;;;;;;;2.43;2.13;;;26.40;47.50;;;;;;5081283;28;20190;-88
2023/06/27 12:11:00;;;;;;;6.60;2.67;;;26.60;47.70;;;;;;5082009;28;20210;-89
2023/06/27 12:13:38;;;;;;;4.70;2.40;;;26.40;48.10;;;;;;5077164;28;20443;-89
2023/06/27 12:16:05;;;;;;;4.33;2.70;;;26.60;46.10;;;;;;5078465;28;20509;-88
2023/06/27 12:18:31;;;;;;;4.20;2.90;;;;;;;;;;5083634;28;20439;-91
2023/06/27 12:20:58;;;;;;;2.87;2.60;;;26.30;46.90;;;;;;5099210;28;20428;-90
2023/06/27 12:23:25;;;;;;;3.53;2.30;;;26.60;47.60;;;;;;5077001;28;20432;-90
2023/06/27 12:25:51;;;;;;;4.83;2.70;;;26.60;46.90;;;;;;5075569;28;20454;-91
2023/06/27 12:28:17;;;;;;;3.67;2.23;;;26.60;47.30;;;;;;5088252;28;20457;-91
2023/06/27 12:30:42;;;;;;;3.50;2.50;;;26.10;46.80;;;;;;5078960;28;20197;-92
2023/06/27 12:33:09;;;;;;;2.30;2.10;;;;;;;;;;5096861;28;20192;-90
2023/06/27 12:35:35;;;;;;;4.90;3.10;;;;;;;;;;5078533;28;20203;-91
2023/06/27 12:38:01;;;;;;;2.80;2.57;;;;;;;;;;5081744;28;20790;-88
2023/06/27 12:40:26;;;;;;;4.40;2.97;;;27.30;47.00;;;;;;5079377;28;20490;-89
2023/06/27 12:42:53;;;;;;;7.03;2.63;;;26.90;46.00;;;;;;5078487;28;21065;-90
2023/06/27 12:45:22;;;;;;;5.83;2.67;;;26.80;46.80;;;;;;5081517;28;20286;-90
2023/06/27 12:47:48;;;;;;;3.03;2.40;;;;;;;;;;5082210;28;20442;-91
2023/06/27 12:50:16;;;;;;;4.27;2.70;;;26.30;46.90;;;;;;5080403;28;20482;-90
2023/06/27 12:52:48;;;;;;;2.57;2.37;;;27.40;48.00;;;;;;5083396;28;20433;-89
2023/06/27 12:55:16;;;;;;;2.83;2.33;;;26.40;45.80;;;;;;5076887;28;21444;-90
2023/06/27 12:57:42;;;;;;;3.53;2.60;;;;;;;;;;5080241;28;20431;-89
2023/06/27 13:00:11;;;;;;;2.63;2.43;;;26.30;47.60;;;;;;5077011;28;20428;-90
2023/06/27 13:02:38;;;;;;;7.27;4.03;;;27.10;47.80;;;;;;5080252;28;20434;-88